Impacts TAF Board
For situational awareness. Not to be used for flight planning purposes.
IDs:

KGCN - Grand Canyon Park Ar, AZ, US

Issued at 1739 UTC 08 Aug 2020
Updated at 2047 UTC 08 Aug 2020
Potential Impact None Slight Moderate High
Time1954Z 08/21Z 08/22Z 08/23Z 09/00Z 09/01Z 09/02Z 09/03Z 09/04Z 09/05Z 09/06Z 09/07Z 09/08Z 09/09Z>>
Type OBS PRVL PRVL PRVL PRVL PRVL PRVL PRVL PRVL PRVL PRVL PRVL PRVL PRVL
VIS 10 >6 >6 >6 >6 >6 >6 >6 >6 >6 >6 >6 >6 >6
CIG -- -- -- -- -- -- -- -- -- -- -- -- -- --
Cover CLR FEW FEW FEW FEW FEW FEW SKC SKC SKC SKC SKC SKC SKC
FltCat VFR VFR VFR VFR VFR VFR VFR VFR VFR VFR VFR VFR VFR VFR
WX -- -- -- -- -- -- -- -- -- -- -- -- -- --
WDir 230 230 230 230 230 230 230 VRB VRB VRB VRB VRB VRB VRB
WSpd 12 12 12 12 12 12 12 5 5 5 5 5 5 5
WGst 26 20 20 20 20 20 20 -- -- -- -- -- -- --
Raw TAF
KGCN 081739Z 0818/0918 23012G20KT P6SM FEW100
  FM090300 VRB05KT P6SM SKC
  FM091700 21008KT P6SM SKC


Raw METAR
KGCN 081954Z 23012G26KT 10SM CLR 29/00 A3032 RMK AO2 PK WND 22026/1948 SLP171 T02940000
KGCN 081854Z 24011G19KT 10SM CLR 28/M01 A3033 RMK AO2 PK WND 20026/1817 SLP175 T02831011
KGCN 081754Z 21018G24KT 10SM CLR 28/M01 A3035 RMK AO2 SLP183 T02781011 10278 20039 58001

METAR Board
Radar Display
Forecast Discussion
For situational awareness. Not to be used for flight planning purposes.